Time;durP1;ratioP1;P1;durP2;ratioP2;P2;SDS_P1;SDS_P2;PMS_P1;PMS_P2;Temp;Humidity;BMP_temperature;BMP_pressure;BME280_temperature;BME280_humidity;BME280_pressure;Samples;Min_cycle;Max_cycle;Signal;HPM_P1;HPM_P2
2022/10/15 00:01:11;;;;;;;16.73;10.80;;;15.20;1.00;;;;;;6222219;23;20448;-84
2022/10/15 00:03:41;;;;;;;14.03;10.60;;;15.20;1.00;;;;;;6243465;23;20375;-84
2022/10/15 00:06:13;;;;;;;15.57;10.70;;;15.10;1.00;;;;;;6243864;23;20384;-84
2022/10/15 00:08:41;;;;;;;12.87;10.03;;;15.10;1.00;;;;;;6241912;23;20403;-84
2022/10/15 00:11:21;;;;;;;11.67;10.47;;;15.10;1.00;;;;;;6215197;23;20868;-84
2022/10/15 00:13:54;;;;;;;11.93;10.70;;;15.10;1.00;;;;;;6241950;23;20413;-84
2022/10/15 00:20:22;;;;;;;;;;;;;;;;;;;;;
2022/10/15 00:30:14;;;;;;;11.13;9.93;;;15.00;1.00;;;;;;6216559;23;20426;-84
2022/10/15 00:42:33;;;;;;;12.37;10.03;;;14.80;1.00;;;;;;6223100;23;20386;-84
2022/10/15 00:45:01;;;;;;;10.60;9.47;;;14.80;1.00;;;;;;6244348;23;20683;-85
2022/10/15 00:47:42;;;;;;;10.87;9.67;;;14.80;1.00;;;;;;6216944;23;20751;-84
2022/10/15 00:50:21;;;;;;;12.23;10.70;;;14.80;1.00;;;;;;6217172;23;20745;-84
2022/10/15 00:53:05;;;;;;;10.20;9.20;;;14.70;1.00;;;;;;6216828;23;20853;-84
2022/10/15 00:55:40;;;;;;;10.43;9.40;;;14.70;1.00;;;;;;6242969;23;20371;-84
2022/10/15 00:58:27;;;;;;;13.60;9.60;;;14.70;1.00;;;;;;6217490;23;20375;-84
2022/10/15 01:01:01;;;;;;;11.33;8.43;;;14.60;1.00;;;;;;6243521;23;20426;-84
2022/10/15 01:03:26;;;;;;;9.83;8.93;;;14.60;1.00;;;;;;6215937;23;20379;-84
2022/10/15 01:06:02;;;;;;;9.40;8.33;;;14.60;1.00;;;;;;6243940;23;20829;-84
2022/10/15 01:08:30;;;;;;;9.63;8.70;;;14.60;1.00;;;;;;6243414;23;20179;-84
2022/10/15 01:11:28;;;;;;;9.77;8.50;;;14.60;1.00;;;;;;6218515;23;20402;-84
2022/10/15 01:14:19;;;;;;;11.83;8.47;;;14.60;1.00;;;;;;6245506;23;20386;-84
2022/10/15 01:16:54;;;;;;;9.80;8.80;;;14.50;1.00;;;;;;6245153;23;20419;-84
2022/10/15 01:19:44;;;;;;;9.67;8.50;;;14.50;1.00;;;;;;6244558;23;20432;-83
2022/10/15 01:22:26;;;;;;;10.90;7.70;;;14.50;1.00;;;;;;6217417;23;21275;-84
2022/10/15 01:25:24;;;;;;;9.27;8.33;;;14.60;1.00;;;;;;6245753;23;20351;-83
2022/10/15 01:28:53;;;;;;;9.80;8.30;;;14.60;1.00;;;;;;6218510;23;20428;-84
2022/10/15 01:31:18;;;;;;;8.50;7.37;;;14.60;1.00;;;;;;6064681;23;20383;-83
2022/10/15 01:34:00;;;;;;;8.90;7.97;;;14.60;1.00;;;;;;6214658;23;20390;-84
2022/10/15 01:36:33;;;;;;;8.67;7.77;;;14.60;1.00;;;;;;6245180;23;20164;-84
2022/10/15 01:39:12;;;;;;;10.80;8.27;;;14.60;1.00;;;;;;6243938;23;20911;-84
2022/10/15 01:42:24;;;;;;;9.20;7.57;;;14.60;1.00;;;;;;6218121;23;20378;-84
2022/10/15 01:48:11;;;;;;;8.40;7.50;;;14.70;1.00;;;;;;6220109;23;20386;-84
2022/10/15 01:50:45;;;;;;;8.87;7.97;;;14.70;1.00;;;;;;6243875;23;20884;-84
2022/10/15 01:53:25;;;;;;;10.43;8.33;;;14.70;1.00;;;;;;6217584;23;20455;-84
2022/10/15 01:56:08;;;;;;;9.63;8.53;;;14.70;1.00;;;;;;6244825;23;20390;-84
2022/10/15 01:58:38;;;;;;;9.27;8.27;;;14.70;1.00;;;;;;6217069;23;20410;-84
2022/10/15 02:01:06;;;;;;;9.10;8.20;;;14.80;1.00;;;;;;6243113;23;20424;-84
2022/10/15 02:03:43;;;;;;;9.70;8.00;;;14.80;1.00;;;;;;6245291;23;20375;-84
2022/10/15 02:06:19;;;;;;;9.93;8.93;;;14.80;1.00;;;;;;6218003;23;20379;-84
2022/10/15 02:08:59;;;;;;;11.43;8.30;;;14.80;1.00;;;;;;6217958;23;20485;-84
2022/10/15 02:11:25;;;;;;;10.13;9.13;;;14.80;1.00;;;;;;6244867;23;20368;-84
2022/10/15 02:14:17;;;;;;;10.90;9.43;;;14.80;1.00;;;;;;6244430;23;20393;-84
2022/10/15 02:17:01;;;;;;;11.57;10.07;;;14.80;1.00;;;;;;6244307;23;20501;-84
2022/10/15 02:19:52;;;;;;;14.13;9.33;;;14.80;1.00;;;;;;6218106;23;20804;-84
2022/10/15 02:22:23;;;;;;;11.20;9.40;;;14.80;1.00;;;;;;6217960;23;20463;-84
2022/10/15 02:25:06;;;;;;;10.73;9.50;;;14.80;1.00;;;;;;6220613;23;20375;-83
2022/10/15 02:27:41;;;;;;;10.13;9.13;;;14.80;1.00;;;;;;6248172;23;20355;-84
2022/10/15 02:30:13;;;;;;;11.27;9.90;;;14.80;1.00;;;;;;6248983;23;20440;-84
2022/10/15 02:32:46;;;;;;;11.53;10.23;;;14.80;1.00;;;;;;6248919;23;20359;-83
2022/10/15 02:35:13;;;;;;;11.57;9.73;;;14.80;1.00;;;;;;6222582;23;20373;-83
2022/10/15 02:37:47;;;;;;;12.30;10.00;;;14.80;1.00;;;;;;6249269;23;20443;-83
2022/10/15 02:40:15;;;;;;;12.03;10.13;;;14.80;1.00;;;;;;6248700;23;20512;-83
2022/10/15 02:42:40;;;;;;;12.23;10.27;;;14.80;1.00;;;;;;6248930;23;20371;-84
2022/10/15 02:45:11;;;;;;;10.60;9.50;;;14.80;1.00;;;;;;6249356;23;20860;-83
2022/10/15 02:47:37;;;;;;;11.57;9.90;;;14.80;1.00;;;;;;6249673;23;20144;-84
2022/10/15 02:50:05;;;;;;;13.47;9.80;;;14.80;1.00;;;;;;6250140;23;20948;-83
2022/10/15 02:52:48;;;;;;;9.70;8.70;;;14.80;1.00;;;;;;6223978;23;20156;-83
2022/10/15 02:55:47;;;;;;;;;;;;;;;;;;;;;
2022/10/15 03:01:45;;;;;;;11.63;8.67;;;14.80;1.00;;;;;;6246313;23;20421;-83
2022/10/15 03:05:22;;;;;;;;;;;;;;;;;;;;;
2022/10/15 03:14:41;;;;;;;11.40;9.50;;;14.70;1.00;;;;;;6222656;23;20382;-84
2022/10/15 03:27:42;;;;;;;15.40;10.17;;;14.60;1.00;;;;;;6220096;23;20444;-84
2022/10/15 03:40:40;;;;;;;13.50;10.80;;;14.60;1.00;;;;;;6227783;23;20766;-84
2022/10/15 03:57:17;;;;;;;;;;;;;;;;;;;;;
2022/10/15 04:06:46;;;;;;;;;;;;;;;;;;;;;
2022/10/15 04:09:45;;;;;;;;;;;;;;;;;;;;;
2022/10/15 04:12:41;;;;;;;16.50;14.03;;;14.40;1.00;;;;;;6237835;23;20470;-84
2022/10/15 04:15:14;;;;;;;21.20;14.10;;;14.40;1.00;;;;;;6195763;23;20385;-84
2022/10/15 04:17:44;;;;;;;21.23;15.67;;;14.50;1.00;;;;;;6245598;23;20355;-84
2022/10/15 04:20:10;;;;;;;21.63;14.10;;;14.50;1.00;;;;;;6245167;23;20472;-84
2022/10/15 04:22:38;;;;;;;20.13;14.20;;;14.50;1.00;;;;;;6245047;23;20372;-84
2022/10/15 04:25:04;;;;;;;16.80;14.40;;;14.50;1.00;;;;;;6217393;23;20951;-84
2022/10/15 04:27:39;;;;;;;18.40;14.70;;;14.50;1.00;;;;;;6218546;23;20386;-84
2022/10/15 04:30:18;;;;;;;17.73;13.80;;;14.50;1.00;;;;;;6218144;23;20407;-84
2022/10/15 04:32:46;;;;;;;23.40;15.20;;;14.50;1.00;;;;;;6245897;23;20700;-84
2022/10/15 04:35:13;;;;;;;20.53;15.30;;;14.50;1.00;;;;;;6216216;23;20394;-85
2022/10/15 04:37:41;;;;;;;20.20;16.37;;;14.50;1.00;;;;;;6217974;23;20413;-84
2022/10/15 04:40:10;;;;;;;19.07;15.13;;;14.50;1.00;;;;;;6244145;23;20801;-84
2022/10/15 04:42:38;;;;;;;21.07;15.10;;;14.50;1.00;;;;;;6220017;23;20389;-84
2022/10/15 04:45:07;;;;;;;21.43;16.93;;;14.50;1.00;;;;;;6250090;23;20374;-85
2022/10/15 04:47:36;;;;;;;19.33;14.47;;;14.50;1.00;;;;;;6250172;23;20378;-84
2022/10/15 04:50:08;;;;;;;21.73;16.33;;;14.50;1.00;;;;;;6249699;23;20398;-84
2022/10/15 04:52:36;;;;;;;22.30;16.40;;;14.50;1.00;;;;;;6248664;23;20374;-84
2022/10/15 04:55:09;;;;;;;25.13;17.90;;;14.40;1.00;;;;;;6248772;23;20386;-84
2022/10/15 04:57:35;;;;;;;24.87;17.80;;;14.40;1.00;;;;;;6248456;23;20380;-85
2022/10/15 05:00:00;;;;;;;26.10;18.53;;;14.30;1.00;;;;;;6224109;23;20496;-84
2022/10/15 05:02:33;;;;;;;28.63;20.23;;;14.20;1.00;;;;;;6223892;23;20144;-83
2022/10/15 05:05:10;;;;;;;30.90;20.33;;;14.20;1.00;;;;;;6223770;23;20141;-84
2022/10/15 05:07:36;;;;;;;33.03;23.33;;;14.10;1.00;;;;;;6221683;23;20373;-83
2022/10/15 05:10:04;;;;;;;33.20;24.07;;;14.10;1.00;;;;;;6250453;23;20466;-85
2022/10/15 05:12:31;;;;;;;33.43;24.63;;;14.10;1.00;;;;;;6223063;23;20154;-84
2022/10/15 05:22:09;;;;;;;44.40;28.90;;;14.10;1.00;;;;;;6231941;23;20710;-84
2022/10/15 05:25:15;;;;;;;43.60;29.10;;;14.10;1.00;;;;;;6245194;23;20383;-84
2022/10/15 05:28:27;;;;;;;47.00;30.87;;;14.10;1.00;;;;;;6228870;23;20512;-85
2022/10/15 05:37:15;;;;;;;49.27;32.07;;;14.10;1.00;;;;;;6224219;23;20387;-85
2022/10/15 05:39:43;;;;;;;48.63;30.87;;;14.10;1.00;;;;;;6249423;23;20872;-83
2022/10/15 05:42:11;;;;;;;46.70;31.60;;;14.10;1.00;;;;;;6221260;23;20156;-84
2022/10/15 05:44:43;;;;;;;47.60;31.40;;;14.10;1.00;;;;;;6247963;23;20377;-84
2022/10/15 05:47:11;;;;;;;47.87;31.57;;;14.00;1.00;;;;;;6222562;23;20424;-84
2022/10/15 05:49:39;;;;;;;50.10;32.97;;;14.00;1.00;;;;;;6221325;23;20805;-83
2022/10/15 05:52:14;;;;;;;52.17;32.03;;;14.00;1.00;;;;;;6221786;23;20395;-83
2022/10/15 05:54:42;;;;;;;55.90;33.80;;;14.00;1.00;;;;;;6250741;23;20998;-83
2022/10/15 05:57:30;;;;;;;53.97;29.57;;;14.00;1.00;;;;;;6255038;23;20854;-83
2022/10/15 06:06:20;;;;;;;46.40;28.00;;;14.00;1.00;;;;;;6234930;23;20429;-84
2022/10/15 06:08:46;;;;;;;43.37;27.90;;;14.00;1.00;;;;;;6251488;23;20467;-84
2022/10/15 06:11:12;;;;;;;46.27;28.10;;;14.10;1.00;;;;;;6251590;23;20412;-84
2022/10/15 06:13:42;;;;;;;44.57;29.40;;;14.10;1.00;;;;;;6250402;23;20926;-84
2022/10/15 06:16:15;;;;;;;48.87;28.90;;;14.10;1.00;;;;;;6250509;23;20393;-84
2022/10/15 06:18:43;;;;;;;49.20;29.83;;;14.20;1.00;;;;;;6223247;23;20449;-84
2022/10/15 06:21:13;;;;;;;46.57;28.27;;;14.20;1.00;;;;;;6222957;23;20753;-85
2022/10/15 06:23:49;;;;;;;43.40;26.87;;;14.40;1.00;;;;;;6223575;23;20387;-84
2022/10/15 06:33:19;;;;;;;;;;;;;;;;;;;;;
2022/10/15 06:36:59;;;;;;;;;;;;;;;;;;;;;
2022/10/15 06:39:39;;;;;;;35.70;25.30;;;15.40;1.00;;;;;;6238249;23;20407;-83
2022/10/15 06:42:45;;;;;;;34.20;23.90;;;15.60;1.00;;;;;;6249338;23;20348;-83
2022/10/15 06:49:16;;;;;;;28.30;20.27;;;16.50;1.00;;;;;;6227302;23;20407;-83
2022/10/15 06:55:55;;;;;;;26.80;18.67;;;17.50;99.90;;;;;;6232176;23;20394;-84
2022/10/15 07:08:39;;;;;;;19.93;14.63;;;17.40;1.00;;;;;;6229141;23;20395;-83
2022/10/15 07:11:43;;;;;;;17.93;14.10;;;17.10;19.90;;;;;;6247903;23;20408;-82
2022/10/15 07:14:21;;;;;;;20.50;12.83;;;16.90;99.90;;;;;;6202178;23;20413;-84
2022/10/15 07:17:34;;;;;;;;;;;;;;;;;;;;;
2022/10/15 07:20:03;;;;;;;20.17;12.60;;;16.60;99.90;;;;;;6249435;23;21006;-84
2022/10/15 07:22:31;;;;;;;17.47;12.17;;;16.50;99.90;;;;;;6250482;23;20456;-83
2022/10/15 07:24:59;;;;;;;17.63;12.40;;;16.50;99.90;;;;;;6250366;23;20455;-84
2022/10/15 07:27:34;;;;;;;;;;;;;;;;;;;;;
2022/10/15 07:30:00;;;;;;;15.80;13.73;;;16.50;99.90;;;;;;6250068;23;20420;-83
2022/10/15 07:32:28;;;;;;;16.77;12.23;;;16.50;99.90;;;;;;6220956;23;20408;-84
2022/10/15 07:34:58;;;;;;;19.57;15.20;;;16.50;99.90;;;;;;6221210;23;20154;-82
2022/10/15 07:37:36;;;;;;;;;;;;;;;;;;;;;
2022/10/15 07:40:05;;;;;;;13.93;10.33;;;16.50;99.90;;;;;;6247901;23;20493;-82
2022/10/15 07:42:42;;;;;;;13.57;10.07;;;16.50;99.90;;;;;;6221755;23;20388;-83
2022/10/15 07:49:29;;;;;;;12.10;9.57;;;16.60;99.90;;;;;;6191986;23;20442;-84
2022/10/15 07:52:07;;;;;;;;;;;;;;;;;;;;;
2022/10/15 08:01:13;;;;;;;16.50;11.63;;;17.00;59.80;;;;;;6230603;23;20438;-84
2022/10/15 08:18:13;;;;;;;14.17;10.97;;;17.60;1.00;;;;;;6229835;23;20398;-83
2022/10/15 08:34:15;;;;;;;7.60;3.90;;;22.70;1.00;;;;;;6224922;23;20766;-84
2022/10/15 08:37:28;;;;;;;;;;;;;;;;;;;;;
2022/10/15 08:50:41;;;;;;;4.40;2.83;;;21.00;1.00;;;;;;6196433;23;20410;-85
2022/10/15 08:53:50;;;;;;;;;;;;;;;;;;;;;
2022/10/15 08:56:25;;;;;;;3.43;2.70;;;19.60;99.90;;;;;;6254204;23;20390;-85
2022/10/15 09:02:43;;;;;;;4.13;2.30;;;19.30;1.00;;;;;;6237238;23;20396;-83
2022/10/15 09:05:56;;;;;;;;;;;;;;;;;;;;;
2022/10/15 09:12:25;;;;;;;5.03;1.93;;;19.50;1.00;;;;;;6222663;23;20376;-84
2022/10/15 09:15:17;;;;;;;2.30;1.60;;;19.70;1.00;;;;;;6123934;23;20430;-85
2022/10/15 09:21:02;;;;;;;1.40;1.00;;;20.40;99.90;;;;;;6218091;23;20417;-83
2022/10/15 09:27:59;;;;;;;;;;;;;;;;;;;;;
2022/10/15 09:30:56;;;;;;;2.30;1.20;;;21.20;1.00;;;;;;6206616;23;20497;-84
2022/10/15 09:33:58;;;;;;;1.87;1.10;;;20.80;1.00;;;;;;6206985;23;20734;-83
2022/10/15 09:36:47;;;;;;;7.63;3.67;;;20.50;1.00;;;;;;6220274;23;20447;-83
2022/10/15 09:39:43;;;;;;;3.00;2.00;;;20.10;99.90;;;;;;6248160;23;20450;-83
2022/10/15 09:42:29;;;;;;;3.50;2.30;;;19.70;99.90;;;;;;6248521;23;20829;-83
2022/10/15 09:45:00;;;;;;;2.50;2.30;;;19.30;1.00;;;;;;6220717;23;20400;-81
2022/10/15 09:47:35;;;;;;;3.00;1.63;;;19.00;1.00;;;;;;6247332;23;20368;-83
2022/10/15 09:50:08;;;;;;;3.83;2.03;;;18.80;99.90;;;;;;6246556;23;20400;-83
2022/10/15 09:56:45;;;;;;;1.93;1.73;;;18.80;99.90;;;;;;6247934;23;20434;-83
2022/10/15 10:03:01;;;;;;;2.93;1.80;;;18.20;1.00;;;;;;6235784;23;20397;-82
2022/10/15 10:08:46;;;;;;;3.13;1.90;;;18.10;99.90;;;;;;6237498;23;20413;-83
2022/10/15 10:11:41;;;;;;;3.63;1.73;;;18.20;99.90;;;;;;6251154;23;20360;-84
2022/10/15 10:14:41;;;;;;;6.23;2.23;;;18.30;99.90;;;;;;6225859;23;20948;-83
2022/10/15 10:17:14;;;;;;;2.70;2.50;;;18.50;99.90;;;;;;6252605;23;20375;-83
2022/10/15 10:19:42;;;;;;;3.00;2.50;;;18.70;99.90;;;;;;6251829;23;20494;-83
2022/10/15 10:22:20;;;;;;;3.83;3.17;;;18.90;99.90;;;;;;6219521;23;20385;-83
2022/10/15 10:24:49;;;;;;;2.47;2.27;;;19.00;99.90;;;;;;6222302;23;20444;-82
2022/10/15 10:27:28;;;;;;;2.50;2.10;;;19.10;99.90;;;;;;6221497;23;20417;-83
2022/10/15 10:30:04;;;;;;;1.43;1.33;;;19.20;21.50;;;;;;6248922;23;20400;-83
2022/10/15 10:32:37;;;;;;;2.13;1.27;;;19.30;1.00;;;;;;6221002;23;20466;-83
2022/10/15 10:35:21;;;;;;;1.80;1.30;;;19.40;1.00;;;;;;6245388;23;20370;-84
2022/10/15 10:37:50;;;;;;;2.70;2.40;;;19.50;1.00;;;;;;6220056;23;20390;-84
2022/10/15 10:40:38;;;;;;;1.80;1.70;;;19.50;1.00;;;;;;6220477;23;20441;-84
2022/10/15 10:43:18;;;;;;;2.00;1.60;;;19.50;99.90;;;;;;6218920;23;20462;-85
2022/10/15 10:46:04;;;;;;;4.93;1.20;;;19.40;1.00;;;;;;6220089;23;20383;-84
2022/10/15 10:49:04;;;;;;;9.67;3.70;;;19.30;1.00;;;;;;6248224;23;20402;-84
2022/10/15 10:51:32;;;;;;;3.43;3.00;;;19.50;1.00;;;;;;6247750;23;20512;-84
2022/10/15 10:54:05;;;;;;;5.13;3.90;;;19.60;1.00;;;;;;6221956;23;20387;-83
2022/10/15 10:56:45;;;;;;;3.87;2.60;;;19.80;1.00;;;;;;6220923;23;20414;-85
2022/10/15 10:59:22;;;;;;;2.37;1.70;;;19.90;99.90;;;;;;6245499;23;20478;-84
2022/10/15 11:02:05;;;;;;;5.80;4.17;;;20.20;99.90;;;;;;6247727;23;20399;-84
2022/10/15 11:04:40;;;;;;;4.40;3.20;;;20.30;1.00;;;;;;6219446;23;20721;-84
2022/10/15 11:07:31;;;;;;;1.63;0.90;;;20.40;1.00;;;;;;6219175;23;20852;-84
2022/10/15 11:10:16;;;;;;;1.10;0.50;;;20.70;99.90;;;;;;6251179;23;20400;-84
2022/10/15 11:13:40;;;;;;;1.70;0.80;;;21.10;1.00;;;;;;6244555;23;20367;-86
2022/10/15 11:16:22;;;;;;;2.63;0.50;;;21.40;99.90;;;;;;6206032;23;20453;-86
2022/10/15 11:19:17;;;;;;;1.07;0.60;;;21.50;99.90;;;;;;6243902;23;20785;-85
2022/10/15 11:21:51;;;;;;;1.10;0.50;;;21.50;99.90;;;;;;6244365;23;20381;-86
2022/10/15 11:24:29;;;;;;;;;;;;;;;;;;;;;
2022/10/15 11:27:33;;;;;;;3.20;0.50;;;21.50;28.90;;;;;;6242733;23;20430;-86
2022/10/15 11:30:26;;;;;;;3.77;1.03;;;21.70;1.00;;;;;;6177822;23;20403;-85
2022/10/15 11:33:25;;;;;;;1.00;0.60;;;22.10;99.90;;;;;;6216787;23;20411;-86
2022/10/15 11:36:34;;;;;;;0.90;0.50;;;22.40;1.00;;;;;;6243367;23;20722;-86
2022/10/15 11:39:27;;;;;;;1.30;0.60;;;22.50;1.00;;;;;;6186790;23;20749;-86
2022/10/15 11:51:26;;;;;;;1.10;0.63;;;22.80;99.90;;;;;;6227488;23;20887;-85
2022/10/15 11:54:19;;;;;;;1.30;0.50;;;22.80;99.90;;;;;;6217667;23;20368;-86
2022/10/15 11:56:58;;;;;;;1.23;0.80;;;22.80;99.90;;;;;;6217175;23;20378;-85
2022/10/15 12:00:16;;;;;;;1.70;0.87;;;22.70;99.90;;;;;;6243576;23;20388;-85
2022/10/15 12:02:51;;;;;;;1.57;0.80;;;22.40;99.90;;;;;;6094521;23;20488;-85
2022/10/15 12:05:26;;;;;;;1.00;0.60;;;22.20;99.90;;;;;;6218084;23;20370;-85
2022/10/15 12:08:09;;;;;;;2.77;1.40;;;22.10;99.90;;;;;;6243734;23;20442;-86
2022/10/15 12:11:03;;;;;;;;;;;;;;;;;;;;;
2022/10/15 12:16:44;;;;;;;1.03;0.60;;;21.90;99.90;;;;;;6220997;23;20482;-86
2022/10/15 12:22:53;;;;;;;1.00;0.50;;;21.60;1.00;;;;;;6221553;23;21007;-85
2022/10/15 12:46:09;;;;;;;1.00;0.60;;;22.30;99.90;;;;;;6221010;23;20410;-86
2022/10/15 12:52:45;;;;;;;0.90;0.50;;;22.40;99.90;;;;;;6205512;23;20811;-86
2022/10/15 12:59:31;;;;;;;;;;;;;;;;;;;;;
2022/10/15 13:52:03;;;;;;;;;;;;;;;;;;;;;
2022/10/15 14:12:50;;;;;;;;;;;;;;;;;;;;;
2022/10/15 14:16:22;;;;;;;;;;;;;;;;;;;;;
2022/10/15 14:19:18;;;;;;;;;;;;;;;;;;;;;
2022/10/15 14:22:24;;;;;;;4.80;1.20;;;21.50;1.00;;;;;;6255110;22;20491;-84
2022/10/15 14:32:18;;;;;;;2.57;1.00;;;20.60;1.00;;;;;;6263237;22;20370;-85
2022/10/15 14:38:31;;;;;;;1.80;1.00;;;20.50;1.00;;;;;;6259394;22;20383;-86
2022/10/15 14:41:46;;;;;;;1.33;1.20;;;20.50;1.00;;;;;;6275721;22;20418;-86
2022/10/15 15:14:22;;;;;;;1.70;1.50;;;19.70;99.90;;;;;;6260349;22;20409;-86
2022/10/15 15:17:25;;;;;;;;;;;;;;;;;;;;;
2022/10/15 15:26:53;;;;;;;2.80;1.57;;;19.70;1.00;;;;;;6259392;22;20386;-87
2022/10/15 15:33:03;;;;;;;3.40;1.60;;;19.60;1.00;;;;;;6257873;22;20694;-87
2022/10/15 15:39:15;;;;;;;;;;;;;;;;;;;;;
2022/10/15 15:45:35;;;;;;;2.93;1.93;;;19.20;1.00;;;;;;6268563;22;20376;-87
2022/10/15 15:48:39;;;;;;;;;;;;;;;;;;;;;
2022/10/15 15:51:25;;;;;;;3.83;3.00;;;19.00;1.00;;;;;;6274150;22;20760;-87
2022/10/15 15:53:51;;;;;;;7.80;2.70;;;19.00;8.90;;;;;;6273221;22;20392;-87
2022/10/15 15:56:22;;;;;;;5.07;3.07;;;19.00;16.50;;;;;;6246277;22;20883;-87
2022/10/15 15:58:49;;;;;;;2.70;1.87;;;18.90;54.30;;;;;;6245683;22;20284;-87
2022/10/15 16:01:15;;;;;;;2.63;2.33;;;18.90;81.10;;;;;;6245940;22;20431;-87
2022/10/15 16:03:41;;;;;;;13.70;2.70;;;18.80;99.90;;;;;;6246759;22;20424;-87
2022/10/15 16:06:07;;;;;;;7.30;4.00;;;18.70;99.90;;;;;;6247720;22;20823;-87
2022/10/15 16:08:40;;;;;;;6.90;2.77;;;18.70;99.90;;;;;;6276630;22;20187;-87
2022/10/15 16:11:06;;;;;;;2.40;2.00;;;18.70;99.90;;;;;;6273417;22;20427;-87
2022/10/15 16:13:42;;;;;;;;;;;;;;;;;;;;;
2022/10/15 16:16:11;;;;;;;4.40;2.90;;;18.50;99.90;;;;;;6274487;22;20218;-86
2022/10/15 16:18:36;;;;;;;3.40;2.50;;;18.50;99.90;;;;;;6273509;22;20398;-88
2022/10/15 16:21:25;;;;;;;2.40;2.10;;;18.50;99.90;;;;;;6246357;22;20487;-87
2022/10/15 16:23:53;;;;;;;2.70;2.20;;;18.40;99.90;;;;;;6273075;22;20163;-87
2022/10/15 16:26:21;;;;;;;2.40;2.17;;;18.30;99.90;;;;;;6272929;22;20371;-87
2022/10/15 16:28:55;;;;;;;4.27;2.50;;;18.30;99.90;;;;;;6246878;22;20424;-87
2022/10/15 16:31:23;;;;;;;3.07;2.73;;;18.30;99.90;;;;;;6246874;22;20389;-87
2022/10/15 16:33:59;;;;;;;3.13;2.20;;;18.20;99.90;;;;;;6246946;22;20456;-87
2022/10/15 16:36:24;;;;;;;2.40;1.83;;;18.20;99.90;;;;;;6246480;22;20413;-87
2022/10/15 16:46:05;;;;;;;2.70;2.00;;;18.10;99.90;;;;;;6247274;22;20409;-87
2022/10/15 16:49:01;;;;;;;;;;;;;;;;;;;;;
2022/10/15 16:55:10;;;;;;;1.90;1.70;;;17.90;99.90;;;;;;6280665;22;20855;-87
2022/10/15 16:58:17;;;;;;;2.63;2.13;;;17.90;99.90;;;;;;6235716;22;20432;-87
2022/10/15 17:00:57;;;;;;;;;;;;;;;;;;;;;
2022/10/15 17:19:15;;;;;;;2.10;1.50;;;17.60;46.60;;;;;;6249054;22;20903;-87
2022/10/15 17:21:49;;;;;;;3.30;1.20;;;17.50;1.00;;;;;;6247459;22;20421;-87
2022/10/15 17:24:44;;;;;;;2.17;1.67;;;17.50;1.00;;;;;;6275308;22;20868;-87
2022/10/15 17:27:17;;;;;;;5.00;1.30;;;17.50;1.00;;;;;;6274060;22;20468;-88
2022/10/15 17:30:08;;;;;;;2.00;1.20;;;17.40;1.00;;;;;;6275080;22;20424;-88
2022/10/15 17:32:39;;;;;;;2.50;1.43;;;17.40;1.00;;;;;;6274387;22;20849;-88
2022/10/15 17:35:25;;;;;;;;;;;;;;;;;;;;;
2022/10/15 17:38:32;;;;;;;;;;;;;;;;;;;;;
2022/10/15 18:24:33;;;;;;;;;;;;;;;;;;;;;
2022/10/15 18:30:32;;;;;;;5.93;3.90;;;16.20;99.90;;;;;;6231781;22;20410;-88
2022/10/15 18:37:07;;;;;;;;;;;;;;;;;;;;;
2022/10/15 18:49:41;;;;;;;12.87;4.17;;;16.00;99.90;;;;;;6247415;22;20405;-87
2022/10/15 18:56:53;;;;;;;7.30;4.33;;;15.90;99.90;;;;;;6246019;22;20410;-87
2022/10/15 19:03:19;;;;;;;;;;;;;;;;;;;;;
2022/10/15 19:16:04;;;;;;;6.57;4.13;;;15.80;1.00;;;;;;6255502;22;20407;-88
2022/10/15 19:18:42;;;;;;;12.67;5.53;;;15.80;1.00;;;;;;6272587;22;20498;-87
2022/10/15 19:35:04;;;;;;;8.70;3.90;;;15.80;1.00;;;;;;6257693;22;20696;-88
2022/10/15 19:41:41;;;;;;;;;;;;;;;;;;;;;
2022/10/15 19:44:46;;;;;;;;;;;;;;;;;;;;;
2022/10/15 19:57:42;;;;;;;7.23;3.60;;;15.70;1.00;;;;;;6210055;22;20881;-88
2022/10/15 20:00:56;;;;;;;8.30;5.67;;;15.70;1.00;;;;;;6247543;22;20427;-87
2022/10/15 20:03:43;;;;;;;;;;;;;;;;;;;;;
2022/10/15 20:10:18;;;;;;;3.97;2.63;;;15.70;1.00;;;;;;6214370;22;20448;-88
2022/10/15 20:20:32;;;;;;;;;;;;;;;;;;;;;
2022/10/15 20:53:38;;;;;;;;;;;;;;;;;;;;;
2022/10/15 21:03:42;;;;;;;;;;;;;;;;;;;;;
2022/10/15 21:14:55;;;;;;;;;;;;;;;;;;;;;
2022/10/15 21:18:57;;;;;;;;;;;;;;;;;;;;;
2022/10/15 21:22:00;;;;;;;;;;;;;;;;;;;;;
2022/10/15 22:21:21;;;;;;;3.73;2.83;;;14.80;1.00;;;;;;6232155;22;20524;-87
2022/10/15 22:24:40;;;;;;;;;;;;;;;;;;;;;
2022/10/15 22:34:37;;;;;;;;;;;;;;;;;;;;;
2022/10/15 22:47:44;;;;;;;;;;;;;;;;;;;;;
2022/10/15 22:50:35;;;;;;;7.73;2.90;;;14.80;1.00;;;;;;6265669;22;20486;-87
2022/10/15 22:57:14;;;;;;;;;;;;;;;;;;;;;
2022/10/15 23:19:57;;;;;;;5.13;2.50;;;14.70;1.00;;;;;;6247390;22;20425;-87
2022/10/15 23:22:53;;;;;;;;;;;;;;;;;;;;;
2022/10/15 23:33:01;;;;;;;;;;;;;;;;;;;;;
2022/10/15 23:39:40;;;;;;;;;;;;;;;;;;;;;
2022/10/15 23:59:44;;;;;;;2.87;1.70;;;14.70;1.00;;;;;;6240880;22;20459;-87
